createdAt,value
2018-02-09T00:02:24.140Z,101805.09
2018-02-09T00:04:53.426Z,101798.11
2018-02-09T00:07:21.811Z,101800.56
2018-02-09T00:09:50.189Z,101789.28
2018-02-09T00:12:18.567Z,101788.20
2018-02-09T00:14:46.990Z,101792.85
2018-02-09T00:17:16.145Z,101779.83
2018-02-09T00:19:44.587Z,101776.46
2018-02-09T00:22:14.719Z,101774.80
2018-02-09T00:24:43.668Z,101773.26
2018-02-09T00:27:12.034Z,101773.03
2018-02-09T00:29:41.229Z,101773.58
2018-02-09T00:32:09.773Z,101760.28
2018-02-09T00:34:38.113Z,101762.18
2018-02-09T00:37:07.289Z,101762.59
2018-02-09T00:39:35.764Z,101765.99
2018-02-09T00:42:04.145Z,101768.03
2018-02-09T00:44:32.552Z,101773.36
2018-02-09T00:47:01.069Z,101779.09
2018-02-09T00:49:29.441Z,101767.75
2018-02-09T00:51:57.866Z,101767.30
2018-02-09T00:54:26.209Z,101772.37
2018-02-09T00:56:54.633Z,101762.97
2018-02-09T00:59:22.976Z,101767.19
2018-02-09T01:01:51.381Z,101761.28
2018-02-09T01:04:19.760Z,101765.16
2018-02-09T01:06:48.106Z,101761.38
2018-02-09T01:09:16.748Z,101755.99
2018-02-09T01:11:45.924Z,101761.30
2018-02-09T01:14:14.404Z,101758.25
2018-02-09T01:16:42.808Z,101755.58
2018-02-09T01:19:11.150Z,101751.07
2018-02-09T01:21:39.504Z,101751.75
2018-02-09T01:24:07.853Z,101747.30
2018-02-09T01:26:37.045Z,101752.95
2018-02-09T01:29:06.149Z,101753.44
2018-02-09T01:31:34.820Z,101746.96
2018-02-09T01:34:03.925Z,101747.35
2018-02-09T01:36:33.052Z,101750.69
2018-02-09T01:39:01.402Z,101744.26
2018-02-09T01:41:29.739Z,101747.42
2018-02-09T01:43:58.102Z,101732.66
2018-02-09T01:46:26.453Z,101733.24
2018-02-09T01:48:54.783Z,101734.20
2018-02-09T01:51:23.113Z,101735.73
2018-02-09T01:53:51.823Z,101731.72
2018-02-09T01:56:20.157Z,101733.95
2018-02-09T01:58:49.280Z,101723.34
2018-02-09T02:01:17.642Z,101724.63
2018-02-09T02:03:46.743Z,101729.62
2018-02-09T02:06:15.867Z,101723.45
2018-02-09T02:08:44.347Z,101725.52
2018-02-09T02:11:12.656Z,101718.05
2018-02-09T02:13:40.973Z,101715.00
2018-02-09T02:16:09.557Z,101714.34
2018-02-09T02:18:37.938Z,101722.33
2018-02-09T02:21:06.278Z,101715.47
2018-02-09T02:23:34.641Z,101721.84
2018-02-09T02:26:02.965Z,101710.02
2018-02-09T02:28:32.074Z,101714.11
2018-02-09T02:31:00.576Z,101718.09
2018-02-09T02:33:28.895Z,101720.54
2018-02-09T02:35:58.049Z,101719.45
2018-02-09T02:38:26.473Z,101704.98
2018-02-09T02:40:54.794Z,101707.23
2018-02-09T02:43:23.125Z,101708.09
2018-02-09T02:45:51.479Z,101701.05
2018-02-09T02:48:19.837Z,101694.61
2018-02-09T02:50:48.160Z,101695.52
2018-02-09T02:53:16.508Z,101686.67
2018-02-09T02:55:44.872Z,101679.23
2018-02-09T02:58:13.240Z,101677.16
2018-02-09T03:00:42.360Z,101679.81
2018-02-09T03:03:10.698Z,101679.44
2018-02-09T03:05:39.791Z,101672.11
2018-02-09T03:08:08.927Z,101669.41
2018-02-09T03:10:37.307Z,101664.67
2018-02-09T03:13:05.627Z,101665.16
2018-02-09T03:15:33.999Z,101668.36
2018-02-09T03:18:02.353Z,101665.87
2018-02-09T03:20:30.764Z,101664.77
2018-02-09T03:22:59.317Z,101658.28
2018-02-09T03:25:27.734Z,101669.95
2018-02-09T03:27:56.090Z,101665.87
2018-02-09T03:30:24.462Z,101669.42
2018-02-09T03:32:52.868Z,101667.37
2018-02-09T03:35:21.293Z,101658.41
2018-02-09T03:37:49.722Z,101660.67
2018-02-09T03:40:18.041Z,101659.80
2018-02-09T03:42:46.400Z,101659.91
2018-02-09T03:45:15.174Z,101661.60
2018-02-09T03:47:43.556Z,101666.59
2018-02-09T03:50:11.923Z,101662.95
2018-02-09T03:52:40.308Z,101656.48
2018-02-09T03:55:08.665Z,101650.48
2018-02-09T03:57:37.141Z,101645.36
2018-02-09T04:00:05.554Z,101643.68
2018-02-09T04:02:33.906Z,101638.50
2018-02-09T04:05:02.312Z,101637.84
2018-02-09T04:07:30.924Z,101632.95
2018-02-09T04:09:59.380Z,101640.72
2018-02-09T04:12:27.860Z,101632.91
2018-02-09T04:14:56.306Z,101631.65
2018-02-09T04:17:24.721Z,101629.66
2018-02-09T04:19:53.145Z,101628.53
2018-02-09T04:22:21.585Z,101628.65
2018-02-09T04:24:49.992Z,101620.98
2018-02-09T04:27:19.262Z,101610.16
2018-02-09T04:29:48.044Z,101616.94
2018-02-09T04:32:16.401Z,101617.02
2018-02-09T04:34:44.913Z,101608.78
2018-02-09T04:37:13.315Z,101599.50
2018-02-09T04:39:42.491Z,101594.06
2018-02-09T04:42:10.851Z,101603.48
2018-02-09T04:44:39.252Z,101599.46
2018-02-09T04:47:07.610Z,101592.91
2018-02-09T04:49:36.121Z,101596.51
2018-02-09T04:52:04.801Z,101594.03
2018-02-09T04:54:33.169Z,101589.50
2018-02-09T04:57:01.516Z,101594.66
2018-02-09T04:59:29.898Z,101590.35
2018-02-09T05:01:58.241Z,101594.54
2018-02-09T05:04:27.356Z,101595.45
2018-02-09T05:06:55.716Z,101592.66
2018-02-09T05:09:24.040Z,101586.37
2018-02-09T05:11:52.366Z,101582.67
2018-02-09T05:14:21.820Z,101578.41
2018-02-09T05:16:50.290Z,101574.31
2018-02-09T05:19:18.623Z,101577.91
2018-02-09T05:21:46.970Z,101569.70
2018-02-09T05:24:15.272Z,101573.21
2018-02-09T05:26:43.636Z,101564.92
2018-02-09T05:29:12.017Z,101563.86
2018-02-09T05:31:40.344Z,101563.80
2018-02-09T05:34:08.735Z,101566.36
2018-02-09T05:36:37.232Z,101553.77
2018-02-09T05:39:05.622Z,101558.73
2018-02-09T05:41:33.952Z,101547.86
2018-02-09T05:44:03.100Z,101556.20
2018-02-09T05:46:31.425Z,101557.58
2018-02-09T05:48:59.733Z,101559.77
2018-02-09T05:51:28.079Z,101554.12
2018-02-09T05:53:57.176Z,101558.28
2018-02-09T05:56:26.288Z,101563.47
2018-02-09T05:58:55.037Z,101558.43
2018-02-09T06:01:23.354Z,101556.01
2018-02-09T06:03:51.682Z,101560.84
2018-02-09T06:06:20.026Z,101550.70
2018-02-09T06:08:48.340Z,101557.52
2018-02-09T06:11:16.659Z,101553.36
2018-02-09T06:13:45.016Z,101560.64
2018-02-09T06:16:13.368Z,101550.09
2018-02-09T06:18:41.704Z,101556.91
2018-02-09T06:21:10.364Z,101548.34
2018-02-09T06:23:38.692Z,101553.36
2018-02-09T06:26:07.020Z,101554.46
2018-02-09T06:28:35.375Z,101552.52
2018-02-09T06:31:03.690Z,101559.31
2018-02-09T06:33:32.771Z,101554.04
2018-02-09T06:36:01.259Z,101553.20
2018-02-09T06:38:29.660Z,101564.20
2018-02-09T06:40:57.981Z,101560.45
2018-02-09T06:43:26.793Z,101554.93
2018-02-09T06:45:55.199Z,101559.10
2018-02-09T06:48:23.592Z,101555.33
2018-02-09T06:50:51.984Z,101564.39
2018-02-09T06:53:20.406Z,101553.55
2018-02-09T06:55:48.823Z,101552.63
2018-02-09T06:58:18.335Z,101553.77
2018-02-09T07:00:46.683Z,101553.27
2018-02-09T07:03:15.007Z,101558.36
2018-02-09T07:05:43.720Z,101551.86
2018-02-09T07:08:12.816Z,101556.70
2018-02-09T07:10:41.199Z,101554.73
2018-02-09T07:13:09.569Z,101555.05
2018-02-09T07:15:37.902Z,101551.63
2018-02-09T07:18:06.312Z,101551.87
2018-02-09T07:20:34.704Z,101540.92
2018-02-09T07:23:03.061Z,101546.69
2018-02-09T07:25:31.593Z,101539.43
2018-02-09T07:28:00.815Z,101536.31
2018-02-09T07:30:29.926Z,101542.52
2018-02-09T07:32:59.023Z,101533.75
2018-02-09T07:35:27.383Z,101530.23
2018-02-09T07:37:56.581Z,101532.70
2018-02-09T07:40:25.891Z,101526.59
2018-02-09T07:42:54.236Z,101520.86
2018-02-09T07:45:22.685Z,101527.16
2018-02-09T07:47:51.076Z,101524.00
2018-02-09T07:50:19.807Z,101523.06
2018-02-09T07:52:48.178Z,101513.66
2018-02-09T07:55:16.518Z,101512.45
2018-02-09T07:57:44.879Z,101513.02
2018-02-09T08:00:13.185Z,101507.36
2018-02-09T08:02:41.511Z,101502.33
2018-02-09T08:05:10.621Z,101499.14
2018-02-09T08:07:38.929Z,101494.52
2018-02-09T08:10:07.245Z,101497.61
2018-02-09T08:12:36.350Z,101495.39
2018-02-09T08:15:05.445Z,101496.47
2018-02-09T08:17:33.768Z,101503.35
2018-02-09T08:20:02.220Z,101505.00
2018-02-09T08:22:31.361Z,101501.48
2018-02-09T08:24:59.673Z,101505.77
2018-02-09T08:27:28.127Z,101499.89
2018-02-09T08:29:56.497Z,101508.68
2018-02-09T08:32:24.914Z,101506.27
2018-02-09T08:34:53.825Z,101498.67
2018-02-09T08:37:22.467Z,101510.91
2018-02-09T08:39:51.280Z,101503.01
2018-02-09T08:42:20.444Z,101505.85
2018-02-09T08:44:50.197Z,101505.91
2018-02-09T08:47:18.704Z,101505.11
2018-02-09T08:49:47.093Z,101503.27
2018-02-09T08:52:15.866Z,101500.20
2018-02-09T08:54:44.233Z,101503.34
2018-02-09T08:57:12.886Z,101504.48
2018-02-09T08:59:41.913Z,101508.84
2018-02-09T09:02:10.470Z,101501.83
2018-02-09T09:04:39.692Z,101500.92
2018-02-09T09:07:08.061Z,101499.97
2018-02-09T09:09:36.988Z,101498.23
2018-02-09T09:12:05.448Z,101498.26
2018-02-09T09:14:33.810Z,101494.31
2018-02-09T09:17:02.175Z,101487.50
2018-02-09T09:19:31.181Z,101476.11
2018-02-09T09:21:59.490Z,101477.48
2018-02-09T09:24:28.584Z,101476.77
2018-02-09T09:26:57.682Z,101476.47
2018-02-09T09:29:26.048Z,101477.08
2018-02-09T09:31:54.434Z,101482.59
2018-02-09T09:34:25.269Z,101470.72
2018-02-09T09:36:54.366Z,101470.07
2018-02-09T09:39:22.717Z,101465.82
2018-02-09T09:41:51.390Z,101467.24
2018-02-09T09:44:19.725Z,101466.03
2018-02-09T09:46:48.429Z,101465.70
2018-02-09T09:49:16.808Z,101462.19
2018-02-09T09:51:45.286Z,101460.99
2018-02-09T09:54:13.651Z,101455.84
2018-02-09T09:56:42.021Z,101441.15
2018-02-09T09:59:10.342Z,101459.33
2018-02-09T10:01:38.702Z,101449.34
2018-02-09T10:04:07.143Z,101445.02
2018-02-09T10:06:36.244Z,101442.73
2018-02-09T10:09:04.669Z,101440.27
2018-02-09T10:11:33.060Z,101440.95
2018-02-09T10:14:01.396Z,101434.22
2018-02-09T10:16:29.798Z,101433.58
2018-02-09T10:18:58.212Z,101438.09
2018-02-09T10:21:26.536Z,101428.36
2018-02-09T10:23:55.021Z,101422.70
2018-02-09T10:26:23.525Z,101419.65
2018-02-09T10:28:51.901Z,101419.53
2018-02-09T10:31:20.227Z,101418.78
2018-02-09T10:33:48.672Z,101415.42
2018-02-09T10:36:17.043Z,101408.75
2018-02-09T10:38:45.386Z,101409.62
2018-02-09T10:41:14.527Z,101401.69
2018-02-09T10:43:43.049Z,101398.30
2018-02-09T10:46:11.377Z,101401.42
2018-02-09T10:48:39.789Z,101412.50
2018-02-09T10:51:08.130Z,101397.02
2018-02-09T10:53:36.515Z,101397.30
2018-02-09T10:56:04.973Z,101407.95
2018-02-09T10:58:33.370Z,101403.41
2018-02-09T11:01:01.731Z,101416.50
2018-02-09T11:03:30.132Z,101405.27
2018-02-09T11:05:58.493Z,101391.05
2018-02-09T11:08:26.824Z,101397.12
2018-02-09T11:10:55.713Z,101388.65
2018-02-09T11:13:29.508Z,101393.78
2018-02-09T11:15:57.936Z,101389.88
2018-02-09T11:18:26.287Z,101377.86
2018-02-09T11:20:54.970Z,101374.30
2018-02-09T11:23:23.431Z,101369.61
2018-02-09T11:25:51.894Z,101369.70
2018-02-09T11:28:20.364Z,101361.02
2018-02-09T11:30:49.216Z,101354.16
2018-02-09T11:33:18.354Z,101362.67
2018-02-09T11:35:46.820Z,101355.11
2018-02-09T11:38:15.232Z,101343.33
2018-02-09T11:40:44.324Z,101340.91
2018-02-09T11:43:12.694Z,101339.77
2018-02-09T11:45:41.084Z,101342.08
2018-02-09T11:48:09.413Z,101331.83
2018-02-09T11:50:37.759Z,101340.48
2018-02-09T11:53:06.449Z,101335.09
2018-02-09T11:55:34.944Z,101323.53
2018-02-09T11:58:03.351Z,101335.16
2018-02-09T12:00:31.901Z,101323.62
2018-02-09T12:03:00.235Z,101327.88
2018-02-09T12:05:28.686Z,101322.47
2018-02-09T12:07:57.812Z,101322.16
2018-02-09T12:10:26.290Z,101315.00
2018-02-09T12:12:54.642Z,101311.59
2018-02-09T12:15:23.877Z,101314.52
2018-02-09T12:17:52.254Z,101315.41
2018-02-09T12:20:20.612Z,101319.16
2018-02-09T12:22:49.751Z,101312.27
2018-02-09T12:25:18.069Z,101306.48
2018-02-09T12:27:46.468Z,101302.70
2018-02-09T12:30:15.623Z,101300.11
2018-02-09T12:32:43.952Z,101300.43
2018-02-09T12:35:12.321Z,101302.14
2018-02-09T12:37:41.728Z,101300.08
2018-02-09T12:40:10.084Z,101298.70
2018-02-09T12:42:38.423Z,101287.70
2018-02-09T12:45:06.797Z,101293.98
2018-02-09T12:47:35.109Z,101288.73
2018-02-09T12:50:03.537Z,101280.69
2018-02-09T12:52:31.905Z,101308.92
2018-02-09T12:55:00.263Z,101290.52
2018-02-09T12:57:28.659Z,101295.61
2018-02-09T12:59:58.297Z,101277.56
2018-02-09T13:02:26.675Z,101285.34
2018-02-09T13:04:55.005Z,101284.13
2018-02-09T13:07:23.420Z,101274.47
2018-02-09T13:09:51.817Z,101275.59
2018-02-09T13:12:37.925Z,101278.11
2018-02-09T13:15:06.255Z,101275.66
2018-02-09T13:17:35.330Z,101267.16
2018-02-09T13:20:03.859Z,101270.98
2018-02-09T13:22:49.888Z,101267.79
2018-02-09T13:25:18.273Z,101282.11
2018-02-09T13:27:46.635Z,101266.14
2018-02-09T13:30:14.967Z,101265.20
2018-02-09T13:33:00.819Z,101280.15
2018-02-09T13:35:29.939Z,101270.51
2018-02-09T13:37:58.283Z,101265.52
2018-02-09T13:40:27.002Z,101269.81
2018-02-09T13:42:55.350Z,101270.56
2018-02-09T13:45:24.470Z,101267.65
2018-02-09T13:47:52.845Z,101275.72
2018-02-09T13:50:21.213Z,101265.93
2018-02-09T13:52:49.558Z,101268.33
2018-02-09T13:55:17.943Z,101261.97
2018-02-09T13:57:46.316Z,101263.17
2018-02-09T14:00:14.642Z,101258.20
2018-02-09T14:02:43.209Z,101257.69
2018-02-09T14:05:11.633Z,101259.58
2018-02-09T14:07:40.052Z,101277.98
2018-02-09T14:10:08.426Z,101261.56
2018-02-09T14:12:36.824Z,101256.98
2018-02-09T14:15:05.198Z,101262.06
2018-02-09T14:17:33.787Z,101250.89
2018-02-09T14:20:02.273Z,101268.72
2018-02-09T14:22:30.573Z,101254.63
2018-02-09T14:24:59.407Z,101261.40
2018-02-09T14:27:27.735Z,101259.94
2018-02-09T14:29:56.033Z,101258.78
2018-02-09T14:32:24.456Z,101259.28
2018-02-09T14:34:52.822Z,101255.73
2018-02-09T14:37:21.132Z,101250.27
2018-02-09T14:39:49.505Z,101250.70
2018-02-09T14:42:17.869Z,101254.42
2018-02-09T14:44:46.646Z,101250.59
2018-02-09T14:47:15.165Z,101248.31
2018-02-09T14:49:43.526Z,101245.19
2018-02-09T14:52:11.855Z,101246.11
2018-02-09T14:54:40.206Z,101252.00
2018-02-09T14:57:08.539Z,101252.94
2018-02-09T14:59:36.849Z,101250.87
2018-02-09T15:02:05.237Z,101245.90
2018-02-09T15:04:33.656Z,101257.06
2018-02-09T15:07:02.776Z,101256.97
2018-02-09T15:09:31.478Z,101257.48
2018-02-09T15:12:00.536Z,101249.63
2018-02-09T15:14:29.638Z,101248.36
2018-02-09T15:16:58.768Z,101247.73
2018-02-09T15:19:27.114Z,101247.52
2018-02-09T15:21:56.201Z,101247.30
2018-02-09T15:24:24.543Z,101249.36
2018-02-09T15:26:53.703Z,101258.20
2018-02-09T15:29:22.055Z,101254.47
2018-02-09T15:31:50.725Z,101251.42
2018-02-09T15:34:19.102Z,101263.77
2018-02-09T15:36:47.440Z,101260.31
2018-02-09T15:39:15.803Z,101261.50
2018-02-09T15:41:44.117Z,101263.02
2018-02-09T15:44:13.219Z,101256.17
2018-02-09T15:46:41.572Z,101259.83
2018-02-09T15:49:09.882Z,101259.91
2018-02-09T15:51:38.238Z,101259.59
2018-02-09T15:54:06.700Z,101262.53
2018-02-09T15:56:35.014Z,101264.77
2018-02-09T15:59:03.360Z,101259.88
2018-02-09T16:01:31.697Z,101263.73
2018-02-09T16:04:00.022Z,101262.94
2018-02-09T16:06:28.364Z,101263.84
2018-02-09T16:08:57.501Z,101268.59
2018-02-09T16:11:25.829Z,101274.14
2018-02-09T16:13:54.177Z,101272.11
2018-02-09T16:16:23.747Z,101271.86
2018-02-09T16:18:52.061Z,101269.73
2018-02-09T16:21:20.387Z,101272.46
2018-02-09T16:23:48.782Z,101276.38
2018-02-09T16:26:17.214Z,101275.59
2018-02-09T16:28:45.602Z,101277.77
2018-02-09T16:31:14.007Z,101279.39
2018-02-09T16:33:43.124Z,101280.03
2018-02-09T16:36:11.471Z,101280.19
2018-02-09T16:38:39.894Z,101288.98
2018-02-09T16:41:08.214Z,101282.92
2018-02-09T16:43:36.552Z,101284.70
2018-02-09T16:46:04.928Z,101282.66
2018-02-09T16:48:33.261Z,101287.52
2018-02-09T16:51:01.579Z,101283.98
2018-02-09T16:53:29.918Z,101291.44
2018-02-09T16:55:58.238Z,101288.21
2018-02-09T16:58:26.581Z,101295.63
2018-02-09T17:00:55.296Z,101298.34
2018-02-09T17:03:23.614Z,101302.96
2018-02-09T17:05:51.934Z,101300.81
2018-02-09T17:08:21.029Z,101304.97
2018-02-09T17:10:50.097Z,101302.91
2018-02-09T17:13:18.416Z,101304.16
2018-02-09T17:15:46.773Z,101300.35
2018-02-09T17:18:15.353Z,101298.11
2018-02-09T17:20:43.651Z,101302.89
2018-02-09T17:23:13.284Z,101299.41
2018-02-09T17:25:41.645Z,101303.82
2018-02-09T17:28:10.729Z,101300.14
2018-02-09T17:30:39.899Z,101301.36
2018-02-09T17:33:08.255Z,101305.75
2018-02-09T17:35:36.562Z,101304.73
2018-02-09T17:38:04.928Z,101300.63
2018-02-09T17:40:33.236Z,101301.64
2018-02-09T17:43:02.335Z,101308.17
2018-02-09T17:45:31.012Z,101301.11
2018-02-09T17:47:59.347Z,101304.91
2018-02-09T17:50:27.813Z,101306.05
2018-02-09T17:52:56.165Z,101304.36
2018-02-09T17:55:25.290Z,101310.88
2018-02-09T17:57:53.625Z,101306.17
2018-02-09T18:00:22.560Z,101307.36
2018-02-09T18:02:50.891Z,101303.78
2018-02-09T18:05:19.242Z,101307.29
2018-02-09T18:07:47.706Z,101312.23
2018-02-09T18:10:16.040Z,101309.56
2018-02-09T18:12:44.397Z,101321.59
2018-02-09T18:15:12.743Z,101324.25
2018-02-09T18:17:41.158Z,101321.09
2018-02-09T18:20:09.464Z,101323.63
2018-02-09T18:22:37.828Z,101327.92
2018-02-09T18:25:06.169Z,101332.84
2018-02-09T18:27:35.281Z,101338.61
2018-02-09T18:30:03.955Z,101338.23
2018-02-09T18:32:32.292Z,101340.66
2018-02-09T18:35:00.679Z,101341.33
2018-02-09T18:37:29.013Z,101340.05
2018-02-09T18:39:57.332Z,101335.17
2018-02-09T18:42:25.655Z,101337.18
2018-02-09T18:44:54.014Z,101341.66
2018-02-09T18:47:22.337Z,101347.05
2018-02-09T18:49:50.700Z,101347.20
2018-02-09T18:52:19.175Z,101342.28
2018-02-09T18:54:47.510Z,101345.15
2018-02-09T18:57:15.808Z,101347.53
2018-02-09T18:59:44.167Z,101347.34
2018-02-09T19:02:12.508Z,101348.63
2018-02-09T19:04:40.846Z,101338.75
2018-02-09T19:07:09.225Z,101330.83
2018-02-09T19:09:37.602Z,101337.07
2018-02-09T19:12:05.924Z,101340.22
2018-02-09T19:14:34.374Z,101336.08
2018-02-09T19:17:02.689Z,101328.97
2018-02-09T19:19:31.077Z,101332.34
2018-02-09T19:21:59.424Z,101338.18
2018-02-09T19:24:28.572Z,101339.69
2018-02-09T19:26:56.904Z,101341.05
2018-02-09T19:29:25.592Z,101340.84
2018-02-09T19:31:54.147Z,101343.03
2018-02-09T19:34:23.377Z,101339.80
2018-02-09T19:36:51.780Z,101338.94
2018-02-09T19:39:20.879Z,101338.88
2018-02-09T19:41:49.988Z,101337.80
2018-02-09T19:44:18.463Z,101336.27
2018-02-09T19:46:47.593Z,101341.28
2018-02-09T19:49:15.939Z,101338.04
2018-02-09T19:51:44.270Z,101338.56
2018-02-09T19:54:12.569Z,101340.38
2018-02-09T19:56:41.673Z,101336.98
2018-02-09T19:59:10.953Z,101335.18
2018-02-09T20:01:39.275Z,101331.31
2018-02-09T20:04:07.613Z,101329.93
2018-02-09T20:06:35.993Z,101335.13
2018-02-09T20:09:04.341Z,101331.13
2018-02-09T20:11:32.665Z,101334.27
2018-02-09T20:14:01.031Z,101331.79
2018-02-09T20:16:29.352Z,101321.96
2018-02-09T20:18:57.684Z,101335.03
2018-02-09T20:21:26.235Z,101329.27
2018-02-09T20:23:55.284Z,101334.56
2018-02-09T20:26:23.639Z,101335.75
2018-02-09T20:28:52.020Z,101334.31
2018-02-09T20:31:20.420Z,101337.31
2018-02-09T20:33:48.844Z,101337.60
2018-02-09T20:36:17.186Z,101330.53
2018-02-09T20:38:46.305Z,101339.20
2018-02-09T20:41:14.636Z,101342.80
2018-02-09T20:43:43.384Z,101348.48
2018-02-09T20:46:11.693Z,101350.27
2018-02-09T20:48:40.039Z,101346.77
2018-02-09T20:51:08.377Z,101340.77
2018-02-09T20:53:36.732Z,101340.13
2018-02-09T20:56:05.072Z,101344.27
2018-02-09T20:58:33.417Z,101338.14
2018-02-09T21:01:02.503Z,101338.48
2018-02-09T21:03:30.977Z,101339.91
2018-02-09T21:05:59.729Z,101340.18
2018-02-09T21:08:28.093Z,101340.95
2018-02-09T21:10:56.442Z,101337.59
2018-02-09T21:13:24.805Z,101346.34
2018-02-09T21:15:53.150Z,101340.55
2018-02-09T21:18:21.478Z,101344.00
2018-02-09T21:20:49.821Z,101344.84
2018-02-09T21:23:18.438Z,101346.01
2018-02-09T21:25:47.541Z,101348.48
2018-02-09T21:28:17.047Z,101344.78
2018-02-09T21:30:45.399Z,101342.83
2018-02-09T21:33:13.726Z,101348.98
2018-02-09T21:35:42.113Z,101344.55
2018-02-09T21:38:10.470Z,101351.11
2018-02-09T21:40:39.572Z,101355.31
2018-02-09T21:43:08.692Z,101355.86
2018-02-09T21:45:37.021Z,101355.07
2018-02-09T21:48:05.352Z,101357.27
2018-02-09T21:50:33.975Z,101356.86
2018-02-09T21:53:02.292Z,101359.12
2018-02-09T21:55:30.628Z,101362.53
2018-02-09T21:57:58.979Z,101361.20
2018-02-09T22:00:27.296Z,101357.89
2018-02-09T22:02:56.410Z,101365.83
2018-02-09T22:05:25.548Z,101364.09
2018-02-09T22:07:53.897Z,101364.55
2018-02-09T22:10:23.027Z,101366.39
2018-02-09T22:12:51.747Z,101364.70
2018-02-09T22:15:20.054Z,101369.86
2018-02-09T22:17:48.423Z,101369.34
2018-02-09T22:20:17.615Z,101369.97
2018-02-09T22:22:45.924Z,101370.23
2018-02-09T22:25:14.276Z,101376.62
2018-02-09T22:27:42.901Z,101381.50
2018-02-09T22:30:11.216Z,101371.78
2018-02-09T22:32:39.529Z,101376.98
2018-02-09T22:35:09.179Z,101371.67
2018-02-09T22:37:37.488Z,101379.20
2018-02-09T22:40:05.836Z,101376.20
2018-02-09T22:42:34.202Z,101377.62
2018-02-09T22:45:02.545Z,101376.71
2018-02-09T22:47:31.630Z,101373.90
2018-02-09T22:50:00.770Z,101377.14
2018-02-09T22:52:29.129Z,101382.66
2018-02-09T22:54:57.547Z,101381.45
2018-02-09T22:57:25.955Z,101383.19
2018-02-09T22:59:55.072Z,101384.00
2018-02-09T23:02:24.164Z,101379.78
2018-02-09T23:04:53.336Z,101390.23
2018-02-09T23:07:21.681Z,101381.98
2018-02-09T23:09:49.998Z,101375.23
2018-02-09T23:12:18.353Z,101382.80
2018-02-09T23:14:46.722Z,101382.59
2018-02-09T23:17:15.081Z,101382.09
2018-02-09T23:19:43.585Z,101380.09
2018-02-09T23:22:12.106Z,101381.34
2018-02-09T23:24:40.594Z,101385.53
2018-02-09T23:27:09.636Z,101389.88
2018-02-09T23:29:38.000Z,101391.58
2018-02-09T23:32:06.360Z,101388.97
2018-02-09T23:34:35.480Z,101383.81
2018-02-09T23:37:03.779Z,101388.44
2018-02-09T23:39:32.252Z,101385.30
2018-02-09T23:42:01.007Z,101387.82
2018-02-09T23:44:29.343Z,101388.02
2018-02-09T23:46:57.696Z,101388.30
2018-02-09T23:49:26.750Z,101383.72
2018-02-09T23:51:55.844Z,101380.52
2018-02-09T23:54:24.948Z,101383.72
2018-02-09T23:56:54.064Z,101383.84
2018-02-09T23:59:22.407Z,101395.77
